Time;durP1;ratioP1;P1;durP2;ratioP2;P2;SDS_P1;SDS_P2;PMS_P1;PMS_P2;Temp;Humidity;BMP_temperature;BMP_pressure;BME280_temperature;BME280_humidity;BME280_pressure;Samples;Min_cycle;Max_cycle;Signal;HPM_P1;HPM_P2
2023/09/13 00:01:18;;;;;;;27.48;19.33;;;;;;;18.98;100.00;101176.00;5093736;28;20032;-65
2023/09/13 00:03:44;;;;;;;29.17;20.42;;;;;;;18.99;100.00;101164.38;5094040;28;20034;-66
2023/09/13 00:06:09;;;;;;;27.83;18.75;;;;;;;19.06;100.00;101165.06;5093967;28;20020;-65
2023/09/13 00:08:34;;;;;;;30.10;22.40;;;;;;;18.89;100.00;101158.34;5093723;28;20070;-67
2023/09/13 00:11:04;;;;;;;31.75;23.25;;;;;;;18.77;100.00;101172.91;5092502;28;20031;-62
2023/09/13 00:13:30;;;;;;;32.53;23.73;;;;;;;18.76;100.00;101172.94;5092523;28;20028;-62
2023/09/13 00:15:56;;;;;;;31.88;24.70;;;;;;;18.67;100.00;101170.47;5093584;28;20490;-65
2023/09/13 00:18:21;;;;;;;33.33;25.75;;;;;;;18.58;100.00;101175.16;5093434;28;20024;-63
2023/09/13 00:20:46;;;;;;;33.17;25.65;;;;;;;18.45;100.00;101169.19;5093665;28;20093;-66
2023/09/13 00:23:12;;;;;;;34.20;26.50;;;;;;;18.41;100.00;101177.34;5093740;28;20088;-65
2023/09/13 00:25:37;;;;;;;34.45;26.88;;;;;;;18.30;100.00;101177.56;5093599;28;20118;-68
2023/09/13 00:28:03;;;;;;;34.47;26.52;;;;;;;18.24;100.00;101177.72;5092646;28;20031;-67
2023/09/13 00:30:28;;;;;;;35.47;26.65;;;;;;;18.19;100.00;101179.59;5093555;28;20028;-65
2023/09/13 00:32:54;;;;;;;36.78;27.08;;;;;;;18.18;100.00;101191.22;5093667;28;20368;-68
2023/09/13 00:35:19;;;;;;;34.67;26.23;;;;;;;18.19;100.00;101176.91;5093250;28;20028;-65
2023/09/13 00:37:44;;;;;;;34.05;25.80;;;;;;;18.06;100.00;101182.56;5092239;28;20480;-68
2023/09/13 00:40:10;;;;;;;34.45;26.10;;;;;;;18.15;100.00;101186.81;5093497;28;20036;-65
2023/09/13 00:42:36;;;;;;;35.17;26.55;;;;;;;18.23;100.00;101184.88;5093111;28;20145;-67
2023/09/13 00:45:01;;;;;;;35.70;26.20;;;;;;;18.35;100.00;101186.38;5088903;28;20085;-64
2023/09/13 00:47:27;;;;;;;33.85;25.52;;;;;;;18.49;100.00;101183.38;5093282;28;20097;-65
2023/09/13 00:49:52;;;;;;;32.60;25.17;;;;;;;18.42;100.00;101185.34;5092912;28;20114;-63
2023/09/13 00:52:17;;;;;;;34.00;25.15;;;;;;;18.34;100.00;101181.06;5092995;28;20042;-61
2023/09/13 00:54:43;;;;;;;32.83;25.35;;;;;;;18.20;100.00;101178.69;5093099;28;20495;-70
2023/09/13 00:57:10;;;;;;;36.30;26.35;;;;;;;18.09;100.00;101184.28;5092971;28;20115;-70
2023/09/13 00:59:35;;;;;;;36.35;27.30;;;;;;;18.09;100.00;101176.25;5091668;28;20035;-70
2023/09/13 01:02:01;;;;;;;35.88;26.92;;;;;;;18.08;100.00;101180.72;5092836;28;20040;-70
2023/09/13 01:04:27;;;;;;;38.67;28.15;;;;;;;18.14;100.00;101176.16;5091581;28;20115;-70
2023/09/13 01:06:53;;;;;;;38.60;27.92;;;;;;;18.11;100.00;101172.66;5092730;28;20085;-70
2023/09/13 01:09:18;;;;;;;37.78;28.10;;;;;;;18.08;100.00;101174.50;5092995;28;20040;-70
2023/09/13 01:11:44;;;;;;;37.75;28.77;;;;;;;18.08;100.00;101175.34;5092876;28;20039;-70
2023/09/13 01:14:10;;;;;;;39.00;28.98;;;;;;;18.07;100.00;101183.41;5091636;28;20052;-70
2023/09/13 01:16:41;;;;;;;38.42;29.65;;;;;;;18.01;100.00;101178.22;5092731;28;20062;-70
2023/09/13 01:19:28;;;;;;;40.47;30.85;;;;;;;17.92;100.00;101179.28;5089314;28;20131;-70
2023/09/13 01:22:21;;;;;;;40.35;31.90;;;;;;;17.80;100.00;101171.50;5092543;28;20110;-70
2023/09/13 01:25:25;;;;;;;41.10;30.45;;;;;;;17.77;100.00;101181.31;5090582;28;20106;-70
2023/09/13 01:28:32;;;;;;;41.05;31.70;;;;;;;17.81;100.00;101186.59;5091185;28;20020;-70
2023/09/13 01:30:58;;;;;;;42.70;31.33;;;;;;;17.91;100.00;101182.88;5086142;28;20444;-70
2023/09/13 01:33:23;;;;;;;41.60;31.98;;;;;;;17.96;100.00;101181.00;5092788;28;20024;-70
2023/09/13 01:35:48;;;;;;;44.67;33.50;;;;;;;17.92;100.00;101181.97;5092500;28;20039;-71
2023/09/13 01:38:14;;;;;;;43.47;33.00;;;;;;;17.86;100.00;101192.75;5092586;28;20032;-70
2023/09/13 01:40:41;;;;;;;43.47;32.67;;;;;;;17.73;100.00;101190.31;5096324;28;20035;-70
2023/09/13 01:43:07;;;;;;;46.05;34.78;;;;;;;17.62;100.00;101187.00;5096539;28;20093;-70
2023/09/13 01:45:34;;;;;;;47.95;35.05;;;;;;;17.55;100.00;101190.69;5092421;28;20471;-65
2023/09/13 01:48:01;;;;;;;46.25;35.95;;;;;;;17.44;100.00;101193.56;5096559;28;20038;-66
2023/09/13 01:50:27;;;;;;;50.35;37.00;;;;;;;17.37;100.00;101202.59;5096410;28;20024;-66
2023/09/13 01:52:52;;;;;;;51.38;37.55;;;;;;;17.31;100.00;101210.72;5096243;28;20505;-65
2023/09/13 01:55:18;;;;;;;54.45;39.70;;;;;;;17.28;100.00;101214.31;5096311;28;20040;-62
2023/09/13 01:57:43;;;;;;;58.00;39.63;;;;;;;17.28;100.00;101208.13;5096207;28;20107;-66
2023/09/13 02:00:09;;;;;;;54.92;40.25;;;;;;;17.26;100.00;101224.16;5096150;28;20028;-62
2023/09/13 02:02:34;;;;;;;56.00;40.38;;;;;;;17.23;100.00;101216.22;5096279;28;20035;-64
2023/09/13 02:05:00;;;;;;;58.25;41.55;;;;;;;17.24;100.00;101218.84;5096104;28;20405;-64
2023/09/13 02:07:25;;;;;;;58.17;41.38;;;;;;;17.22;100.00;101222.44;5094728;28;20120;-63
2023/09/13 02:09:52;;;;;;;57.05;41.35;;;;;;;17.18;100.00;101223.41;5096271;28;20035;-64
2023/09/13 02:12:17;;;;;;;59.67;41.92;;;;;;;17.16;100.00;101227.91;5095931;28;20055;-64
2023/09/13 02:14:43;;;;;;;60.28;42.60;;;;;;;17.16;100.00;101230.59;5096116;28;20070;-62
2023/09/13 02:17:11;;;;;;;57.97;42.47;;;;;;;17.20;100.00;101237.63;5096174;28;20028;-61
2023/09/13 02:19:37;;;;;;;61.15;42.90;;;;;;;17.18;100.00;101234.09;5095888;28;20075;-64
2023/09/13 02:22:02;;;;;;;65.13;44.17;;;;;;;17.21;100.00;101228.69;5091561;28;20060;-62
2023/09/13 02:24:28;;;;;;;64.75;43.85;;;;;;;17.29;100.00;101234.78;5095880;28;20455;-61
2023/09/13 02:26:57;;;;;;;63.25;43.88;;;;;;;17.33;100.00;101243.63;5095515;28;20032;-63
2023/09/13 02:29:23;;;;;;;62.65;44.97;;;;;;;17.41;100.00;101247.94;5095547;28;20024;-62
2023/09/13 02:31:48;;;;;;;63.13;45.00;;;;;;;17.42;100.00;101244.34;5096034;28;20044;-61
2023/09/13 02:34:14;;;;;;;68.63;46.05;;;;;;;17.45;100.00;101242.56;5095531;28;20517;-61
2023/09/13 02:36:39;;;;;;;71.43;47.17;;;;;;;17.47;100.00;101244.28;5095674;28;20443;-61
2023/09/13 02:39:05;;;;;;;70.47;47.67;;;;;;;17.45;100.00;101245.22;5094143;28;20088;-61
2023/09/13 02:41:30;;;;;;;71.30;45.78;;;;;;;17.48;100.00;101238.03;5095329;28;20039;-61
2023/09/13 02:43:56;;;;;;;75.22;48.08;;;;;;;17.46;100.00;101250.53;5094215;28;20032;-61
2023/09/13 02:46:21;;;;;;;77.22;48.97;;;;;;;17.50;100.00;101248.69;5095353;28;20020;-61
2023/09/13 02:48:46;;;;;;;76.45;48.75;;;;;;;17.50;100.00;101240.66;5095244;28;20035;-61
2023/09/13 02:51:13;;;;;;;75.93;47.88;;;;;;;17.49;100.00;101237.13;5094477;28;20051;-61
2023/09/13 02:53:38;;;;;;;73.13;46.83;;;;;;;17.47;100.00;101241.59;5095166;28;20028;-61
2023/09/13 02:56:05;;;;;;;72.43;47.55;;;;;;;17.50;100.00;101246.88;5094958;28;20104;-62
2023/09/13 02:58:30;;;;;;;73.30;48.40;;;;;;;17.43;100.00;101246.13;5095300;28;20059;-61
2023/09/13 03:00:56;;;;;;;75.00;47.30;;;;;;;17.40;100.00;101254.22;5094835;28;20048;-62
2023/09/13 03:03:22;;;;;;;71.53;48.35;;;;;;;17.35;100.00;101247.19;5094988;28;20024;-61
2023/09/13 03:05:47;;;;;;;74.22;46.50;;;;;;;17.35;100.00;101252.50;5095181;28;20085;-61
2023/09/13 03:08:13;;;;;;;68.60;46.55;;;;;;;17.30;100.00;101257.94;5094887;28;20028;-61
2023/09/13 03:10:38;;;;;;;71.13;46.10;;;;;;;17.30;100.00;101260.63;5094882;28;20039;-61
2023/09/13 03:13:03;;;;;;;72.50;45.13;;;;;;;17.33;100.00;101257.00;5095104;28;20024;-61
2023/09/13 03:15:32;;;;;;;70.78;45.33;;;;;;;17.33;100.00;101259.66;5094688;28;20032;-61
2023/09/13 03:17:57;;;;;;;68.45;45.42;;;;;;;17.36;100.00;101257.84;5094727;28;20107;-61
2023/09/13 03:20:23;;;;;;;66.70;44.80;;;;;;;17.43;100.00;101259.50;5094818;28;20486;-61
2023/09/13 03:22:48;;;;;;;64.85;44.50;;;;;;;17.48;100.00;101258.53;5094552;28;20032;-61
2023/09/13 03:25:14;;;;;;;70.70;46.10;;;;;;;17.45;100.00;101256.78;5094664;28;20115;-62
2023/09/13 03:27:39;;;;;;;67.78;44.10;;;;;;;17.48;100.00;101261.19;5094477;28;20027;-61
2023/09/13 03:30:05;;;;;;;63.95;43.42;;;;;;;17.46;100.00;101255.00;5094437;28;20494;-63
2023/09/13 03:32:30;;;;;;;63.20;42.08;;;;;;;17.46;100.00;101257.66;5094607;28;20036;-61
2023/09/13 03:34:56;;;;;;;62.83;43.83;;;;;;;17.47;100.00;101262.09;5094347;28;20031;-61
2023/09/13 03:37:21;;;;;;;64.43;43.97;;;;;;;17.40;100.00;101267.56;5094511;28;20032;-61
2023/09/13 03:39:46;;;;;;;68.60;44.45;;;;;;;17.37;100.00;101267.63;5094401;28;20032;-61
2023/09/13 03:42:12;;;;;;;68.53;45.47;;;;;;;17.38;100.00;101266.69;5094194;28;20069;-62
2023/09/13 03:44:37;;;;;;;67.65;44.28;;;;;;;17.40;100.00;101274.69;5094443;28;20413;-61
2023/09/13 03:47:03;;;;;;;69.15;44.20;;;;;;;17.51;100.00;101280.72;5094335;28;20028;-61
2023/09/13 03:49:28;;;;;;;66.18;43.83;;;;;;;17.57;100.00;101269.03;5094125;28;20142;-62
2023/09/13 03:51:54;;;;;;;60.70;42.38;;;;;;;17.59;100.00;101268.13;5094281;28;20063;-61
2023/09/13 03:54:19;;;;;;;66.25;42.92;;;;;;;17.56;100.00;101272.63;5094001;28;20043;-61
2023/09/13 03:56:45;;;;;;;67.60;43.92;;;;;;;17.49;100.00;101265.63;5093938;28;20035;-62
2023/09/13 03:59:10;;;;;;;65.50;43.75;;;;;;;17.45;100.00;101269.28;5094058;28;20186;-62
2023/09/13 04:01:36;;;;;;;64.88;44.55;;;;;;;17.40;100.00;101272.91;5093673;28;20024;-61
2023/09/13 04:04:01;;;;;;;68.30;44.47;;;;;;;17.36;100.00;101265.84;5093743;28;20123;-62
2023/09/13 04:06:27;;;;;;;67.47;43.97;;;;;;;17.31;100.00;101272.19;5093921;28;20039;-61
2023/09/13 04:08:52;;;;;;;71.18;45.75;;;;;;;17.30;100.00;101260.63;5092518;28;20051;-62
2023/09/13 04:11:17;;;;;;;67.97;44.00;;;;;;;17.28;100.00;101262.41;5093688;28;20028;-61
2023/09/13 04:13:43;;;;;;;68.75;45.22;;;;;;;17.23;100.00;101258.94;5093845;28;20024;-61
2023/09/13 04:16:13;;;;;;;68.15;43.20;;;;;;;17.18;100.00;101267.06;5093763;28;20035;-61
2023/09/13 04:18:38;;;;;;;65.95;44.10;;;;;;;17.18;100.00;101260.81;5090071;28;20114;-61
2023/09/13 04:21:04;;;;;;;67.95;44.55;;;;;;;17.25;100.00;101267.81;5093628;28;20118;-61
2023/09/13 04:23:29;;;;;;;67.35;42.85;;;;;;;17.30;100.00;101270.41;5093717;28;20039;-63
2023/09/13 04:25:54;;;;;;;63.60;43.05;;;;;;;17.30;100.00;101271.31;5093358;28;20031;-62
2023/09/13 04:28:20;;;;;;;65.53;43.05;;;;;;;17.34;100.00;101277.47;5092295;28;20036;-61
2023/09/13 04:30:45;;;;;;;67.45;42.67;;;;;;;17.35;100.00;101271.22;5093365;28;20062;-61
2023/09/13 04:33:11;;;;;;;58.70;40.08;;;;;;;17.37;100.00;101270.28;5092094;28;20040;-62
2023/09/13 04:35:36;;;;;;;62.38;40.65;;;;;;;17.36;100.00;101276.53;5093468;28;20065;-62
2023/09/13 04:38:02;;;;;;;62.03;41.38;;;;;;;17.36;100.00;101275.66;5093181;28;20020;-61
2023/09/13 04:40:28;;;;;;;60.72;39.72;;;;;;;17.38;100.00;101279.19;5093031;28;20032;-61
2023/09/13 04:43:16;;;;;;;64.60;41.55;;;;;;;17.37;100.00;101278.31;5092016;28;20027;-61
2023/09/13 04:45:41;;;;;;;58.58;39.65;;;;;;;17.38;100.00;101279.19;5105655;28;20536;-63
2023/09/13 04:48:07;;;;;;;59.97;39.58;;;;;;;17.34;100.00;101278.34;5093132;28;20111;-62
2023/09/13 04:50:32;;;;;;;60.60;40.30;;;;;;;17.30;100.00;101267.72;5093034;28;20035;-63
2023/09/13 04:52:58;;;;;;;60.63;40.40;;;;;;;17.26;100.00;101274.94;5093213;28;20629;-63
2023/09/13 04:55:24;;;;;;;62.35;40.80;;;;;;;17.23;100.00;101275.84;5092787;28;20173;-61
2023/09/13 04:57:49;;;;;;;59.92;40.03;;;;;;;17.21;100.00;101279.44;5093479;28;20374;-61
2023/09/13 05:00:16;;;;;;;61.92;39.85;;;;;;;17.18;100.00;101276.84;5093079;28;20111;-62
2023/09/13 05:02:41;;;;;;;62.00;39.67;;;;;;;17.17;100.00;101278.63;5092795;28;20455;-62
2023/09/13 05:05:07;;;;;;;59.70;39.47;;;;;;;17.17;100.00;101283.97;5093079;28;20057;-61
2023/09/13 05:07:33;;;;;;;60.50;40.47;;;;;;;17.14;100.00;101284.03;5092808;28;20027;-61
2023/09/13 05:09:58;;;;;;;60.65;40.20;;;;;;;17.13;100.00;101290.25;5092803;28;20036;-61
2023/09/13 05:12:24;;;;;;;59.78;38.97;;;;;;;17.13;100.00;101290.25;5093199;28;20032;-61
2023/09/13 05:14:49;;;;;;;59.13;39.22;;;;;;;17.06;100.00;101288.59;5092157;28;20028;-62
2023/09/13 05:17:15;;;;;;;59.90;39.28;;;;;;;17.06;100.00;101293.94;5092643;28;20043;-64
2023/09/13 05:19:40;;;;;;;60.53;39.05;;;;;;;17.05;100.00;101293.06;5092822;28;20513;-61
2023/09/13 05:22:05;;;;;;;58.78;39.92;;;;;;;17.05;100.00;101295.75;5092719;28;20036;-67
2023/09/13 05:24:31;;;;;;;57.47;39.38;;;;;;;17.03;100.00;101284.19;5092662;28;20040;-63
2023/09/13 05:26:56;;;;;;;58.60;39.10;;;;;;;16.95;100.00;101280.75;5092787;28;20028;-64
2023/09/13 05:29:22;;;;;;;57.67;38.58;;;;;;;16.90;100.00;101288.81;5092588;28;20497;-68
2023/09/13 05:31:48;;;;;;;58.75;39.65;;;;;;;16.87;100.00;101282.63;5092667;28;20028;-63
2023/09/13 05:34:14;;;;;;;59.58;38.75;;;;;;;16.84;100.00;101288.88;5091537;28;20032;-64
2023/09/13 05:36:41;;;;;;;59.38;39.03;;;;;;;16.87;100.00;101293.31;5090031;28;20016;-62
2023/09/13 05:39:06;;;;;;;59.20;39.42;;;;;;;16.90;100.00;101298.63;5091588;28;20028;-62
2023/09/13 05:41:32;;;;;;;60.10;39.70;;;;;;;16.97;100.00;101305.66;5092449;28;20035;-61
2023/09/13 05:43:57;;;;;;;58.53;39.05;;;;;;;17.00;100.00;101310.94;5087894;28;20025;-64
2023/09/13 05:46:22;;;;;;;59.35;39.35;;;;;;;17.06;100.00;101309.97;5083469;28;20155;-65
2023/09/13 05:48:48;;;;;;;58.72;39.47;;;;;;;17.08;100.00;101319.72;5087845;28;20063;-62
2023/09/13 05:51:13;;;;;;;59.58;39.60;;;;;;;17.11;100.00;101318.81;5092568;28;20024;-63
2023/09/13 05:53:38;;;;;;;57.25;38.70;;;;;;;17.14;100.00;101312.50;5092653;28;20024;-64
2023/09/13 05:56:04;;;;;;;55.97;38.55;;;;;;;17.13;100.00;101316.97;5092146;28;20506;-62
2023/09/13 05:58:29;;;;;;;54.38;37.40;;;;;;;17.16;100.00;101322.28;5088416;28;20047;-62
2023/09/13 06:00:56;;;;;;;53.55;36.38;;;;;;;17.20;100.00;101326.66;5092414;28;20032;-63
2023/09/13 06:03:21;;;;;;;52.80;37.63;;;;;;;17.20;100.00;101324.00;5092266;28;20423;-62
2023/09/13 06:05:51;;;;;;;53.97;36.58;;;;;;;17.22;100.00;101338.19;5092079;28;20109;-61
2023/09/13 06:08:19;;;;;;;52.42;35.40;;;;;;;17.24;100.00;101327.47;5092454;28;20049;-61
2023/09/13 06:10:45;;;;;;;50.90;35.92;;;;;;;17.22;100.00;101327.50;5090359;28;20025;-62
2023/09/13 06:13:11;;;;;;;52.55;36.30;;;;;;;17.24;100.00;101332.81;5091985;28;20509;-61
2023/09/13 06:15:36;;;;;;;53.00;36.55;;;;;;;17.24;100.00;101339.06;5092282;28;20028;-62
2023/09/13 06:18:02;;;;;;;51.83;36.05;;;;;;;17.22;100.00;101345.34;5092213;28;20028;-62
2023/09/13 06:20:27;;;;;;;53.20;35.78;;;;;;;17.22;100.00;101337.31;5091823;28;20055;-64
2023/09/13 06:22:54;;;;;;;53.00;36.17;;;;;;;17.23;100.00;101345.31;5087959;28;20032;-63
2023/09/13 06:25:19;;;;;;;51.70;34.08;;;;;;;17.28;100.00;101358.59;5087869;28;20020;-63
2023/09/13 06:27:44;;;;;;;49.10;34.00;;;;;;;17.32;100.00;101360.31;5095088;28;20085;-66
2023/09/13 06:30:10;;;;;;;48.95;33.08;;;;;;;17.33;100.00;101362.09;5095879;28;20032;-63
2023/09/13 06:32:36;;;;;;;47.45;32.13;;;;;;;17.38;100.00;101364.69;5095260;28;20032;-65
2023/09/13 06:35:01;;;;;;;48.95;33.20;;;;;;;17.41;100.00;101365.50;5093033;28;20016;-61
2023/09/13 06:37:27;;;;;;;46.83;31.80;;;;;;;17.51;100.00;101370.72;5095401;28;20035;-62
2023/09/13 06:39:53;;;;;;;45.67;32.85;;;;;;;17.63;100.00;101365.16;5095110;28;20028;-61
2023/09/13 06:42:18;;;;;;;43.85;30.38;;;;;;;17.72;100.00;101372.13;5095372;28;20036;-60
2023/09/13 06:44:44;;;;;;;42.05;29.27;;;;;;;17.77;100.00;101373.84;5095231;28;20547;-62
2023/09/13 06:47:09;;;;;;;41.95;29.67;;;;;;;17.82;100.00;101380.91;5090455;28;20491;-62
2023/09/13 06:49:35;;;;;;;40.33;29.05;;;;;;;17.86;100.00;101375.47;5095088;28;20039;-62
2023/09/13 06:52:01;;;;;;;40.72;29.08;;;;;;;17.84;100.00;101376.38;5095373;28;20418;-63
2023/09/13 06:54:27;;;;;;;41.15;28.60;;;;;;;17.86;100.00;101377.25;5094837;28;20028;-61
2023/09/13 06:56:52;;;;;;;40.15;29.02;;;;;;;17.91;100.00;101378.09;5095104;28;20079;-62
2023/09/13 06:59:19;;;;;;;40.65;28.77;;;;;;;17.96;100.00;101381.56;5090377;28;20421;-64
2023/09/13 07:01:45;;;;;;;41.67;28.77;;;;;;;17.97;100.00;101379.78;5094701;28;20525;-61
2023/09/13 07:04:10;;;;;;;41.30;29.45;;;;;;;18.08;100.00;101386.69;5095009;28;20056;-60
2023/09/13 07:06:36;;;;;;;42.88;28.73;;;;;;;18.04;100.00;101392.13;5094709;28;20020;-62
2023/09/13 07:09:02;;;;;;;40.83;28.92;;;;;;;17.99;100.00;101396.69;5093520;28;20028;-62
2023/09/13 07:11:28;;;;;;;41.80;28.33;;;;;;;18.00;100.00;101385.97;5090768;28;20028;-64
2023/09/13 07:13:54;;;;;;;41.15;28.75;;;;;;;18.08;100.00;101394.72;5094606;28;20016;-62
2023/09/13 07:16:19;;;;;;;42.30;29.98;;;;;;;18.15;100.00;101406.19;5094609;28;20032;-62
2023/09/13 07:18:44;;;;;;;40.83;29.02;;;;;;;18.25;100.00;101398.88;5086569;28;20028;-61
2023/09/13 07:21:10;;;;;;;41.10;29.83;;;;;;;18.40;100.00;101393.22;5084855;28;20043;-62
2023/09/13 07:23:35;;;;;;;40.78;30.15;;;;;;;18.53;100.00;101388.50;5081549;28;20036;-61
2023/09/13 07:26:00;;;;;;;40.28;29.27;;;;;;;18.68;100.00;101387.31;5084852;28;20059;-62
2023/09/13 07:28:26;;;;;;;41.25;28.85;;;;;;;18.90;100.00;101390.47;5094319;28;20493;-62
2023/09/13 07:30:51;;;;;;;39.50;29.05;;;;;;;19.08;100.00;101385.63;5094366;28;20489;-66
2023/09/13 07:33:17;;;;;;;39.58;28.45;;;;;;;19.11;100.00;101378.38;5093910;28;20092;-62
2023/09/13 07:35:42;;;;;;;39.45;27.95;;;;;;;18.93;100.00;101392.19;5089541;28;20483;-62
2023/09/13 07:38:07;;;;;;;40.33;28.40;;;;;;;18.46;100.00;101400.25;5093859;28;20028;-62
2023/09/13 07:40:33;;;;;;;40.42;28.98;;;;;;;18.04;100.00;101403.72;5094279;28;20032;-68
2023/09/13 07:42:59;;;;;;;42.90;29.67;;;;;;;17.85;100.00;101402.22;5094103;28;20498;-66
2023/09/13 07:45:24;;;;;;;42.05;28.92;;;;;;;17.71;100.00;101415.84;5094260;28;20035;-68
2023/09/13 07:47:50;;;;;;;44.03;29.80;;;;;;;17.59;100.00;101416.91;5089304;28;20020;-71
2023/09/13 07:50:33;;;;;;;45.22;30.73;;;;;;;17.63;100.00;101439.13;5093843;28;20453;-63
2023/09/13 07:52:59;;;;;;;37.10;22.50;;;;;;;17.55;100.00;101437.47;5094273;28;20024;-76
2023/09/13 07:55:25;;;;;;;30.08;17.63;;;;;;;17.43;100.00;101451.03;5094121;28;20082;-70
2023/09/13 07:57:51;;;;;;;20.58;8.30;;;;;;;17.36;100.00;101457.34;5094174;28;20044;-70
2023/09/13 08:00:17;;;;;;;19.75;7.30;;;;;;;17.39;100.00;101463.53;5093903;28;20352;-68
2023/09/13 08:02:44;;;;;;;17.02;4.90;;;;;;;17.48;100.00;101465.19;5093903;28;20471;-64
2023/09/13 08:05:09;;;;;;;13.50;4.15;;;;;;;17.56;100.00;101465.06;5093868;28;20085;-63
2023/09/13 08:07:35;;;;;;;11.57;3.90;;;;;;;17.66;100.00;101461.34;5093911;28;20028;-63
2023/09/13 08:10:02;;;;;;;13.63;3.53;;;;;;;17.76;100.00;101462.09;5093685;28;20120;-63
2023/09/13 08:12:28;;;;;;;9.63;3.20;;;;;;;17.86;100.00;101461.03;5093887;28;20032;-63
2023/09/13 08:14:54;;;;;;;7.18;2.72;;;;;;;17.89;100.00;101465.47;5093711;28;20031;-66
2023/09/13 08:17:19;;;;;;;7.30;2.90;;;;;;;18.21;100.00;101470.28;5092657;28;20056;-65
2023/09/13 08:19:46;;;;;;;7.97;2.50;;;;;;;18.37;100.00;101464.69;5093509;28;20479;-62
2023/09/13 08:22:11;;;;;;;6.50;2.30;;;;;;;18.40;100.00;101462.81;5093579;28;20066;-63
2023/09/13 08:24:37;;;;;;;6.78;2.60;;;;;;;18.40;100.00;101465.47;5093452;28;20495;-63
2023/09/13 08:27:02;;;;;;;6.53;2.60;;;;;;;18.44;100.00;101477.91;5093368;28;20032;-66
2023/09/13 08:29:28;;;;;;;7.97;2.40;;;;;;;18.50;100.00;101476.03;5093489;28;20425;-67
2023/09/13 08:31:53;;;;;;;4.25;2.35;;;;;;;18.58;100.00;101484.78;5093277;28;20028;-67
2023/09/13 08:34:19;;;;;;;4.63;2.20;;;;;;;18.51;100.00;101492.06;5093260;28;20040;-63
2023/09/13 08:36:44;;;;;;;4.10;2.30;;;;;;;18.40;100.00;101486.91;5093699;28;20131;-66
2023/09/13 08:39:09;;;;;;;3.58;2.10;;;;;;;18.36;100.00;101495.00;5090379;28;20172;-62
2023/09/13 08:41:35;;;;;;;8.18;2.25;;;;;;;18.51;100.00;101497.44;5086854;28;20035;-65
2023/09/13 08:44:03;;;;;;;7.05;2.13;;;;;;;18.70;100.00;101507.75;5093120;28;20022;-68
2023/09/13 08:46:30;;;;;;;8.93;2.78;;;;;;;18.83;100.00;101512.00;5082540;28;20434;-61
2023/09/13 08:48:57;;;;;;;3.42;2.10;;;;;;;18.85;100.00;101520.00;5087936;28;20177;-64
2023/09/13 08:51:23;;;;;;;7.18;1.98;;;;;;;18.74;100.00;101526.44;5092655;28;20036;-61
2023/09/13 08:53:51;;;;;;;6.50;2.00;;;;;;;18.78;100.00;101535.28;5092884;28;20213;-65
2023/09/13 08:56:19;;;;;;;5.55;2.20;;;;;;;18.99;100.00;101532.25;5092485;28;20051;-63
2023/09/13 08:58:44;;;;;;;4.80;1.90;;;;;;;19.27;100.00;101536.16;5091679;28;20112;-64
2023/09/13 09:01:10;;;;;;;4.28;2.10;;;;;;;19.60;100.00;101539.00;5089232;28;20089;-62
2023/09/13 09:03:36;;;;;;;3.50;2.00;;;;;;;19.52;100.00;101542.75;5092815;28;20130;-63
2023/09/13 09:06:04;;;;;;;5.32;2.10;;;;;;;19.51;100.00;101543.69;5086998;28;20033;-62
2023/09/13 09:08:30;;;;;;;3.65;2.10;;;;;;;19.62;100.00;101567.56;5082556;28;20017;-63
2023/09/13 09:10:59;;;;;;;4.25;2.00;;;;;;;19.75;100.00;101554.75;5091289;28;20089;-62
2023/09/13 09:13:25;;;;;;;8.38;2.30;;;;;;;19.62;100.00;101561.31;5089367;28;20023;-61
2023/09/13 09:15:52;;;;;;;4.63;2.10;;;;;;;19.51;100.00;101565.13;5092892;28;20028;-62
2023/09/13 09:18:19;;;;;;;5.82;2.00;;;;;;;19.26;100.00;101569.22;5092626;28;20031;-61
2023/09/13 09:20:44;;;;;;;6.25;2.15;;;;;;;18.92;100.00;101575.25;5092984;28;20059;-62
2023/09/13 09:23:11;;;;;;;5.53;2.08;;;;;;;18.86;100.00;101581.59;5092508;28;20471;-61
2023/09/13 09:25:39;;;;;;;7.20;2.40;;;;;;;19.07;100.00;101579.44;5091890;28;20035;-62
2023/09/13 09:28:05;;;;;;;5.53;2.08;;;;;;;19.25;100.00;101586.22;5092748;28;20467;-62
2023/09/13 09:30:32;;;;;;;7.68;2.10;;;;;;;19.33;100.00;101592.31;5092432;28;20104;-62
2023/09/13 09:33:06;;;;;;;4.00;2.10;;;;;;;19.33;100.00;101593.19;5091434;28;20394;-62
2023/09/13 09:35:32;;;;;;;8.18;2.13;;;;;;;19.34;100.00;101594.97;5092459;28;20032;-62
2023/09/13 09:37:58;;;;;;;6.68;2.22;;;;;;;19.52;100.00;101596.34;5087671;28;20089;-62
2023/09/13 09:40:23;;;;;;;4.28;2.00;;;;;;;19.61;100.00;101599.78;5092134;28;20475;-62
2023/09/13 09:42:56;;;;;;;7.93;2.28;;;;;;;19.77;100.00;101601.19;5091045;28;20360;-62
2023/09/13 09:45:23;;;;;;;4.43;2.00;;;;;;;19.80;100.00;101601.16;5092580;28;20093;-62
2023/09/13 09:47:52;;;;;;;5.50;2.10;;;;;;;19.75;100.00;101604.84;5092451;28;20028;-62
2023/09/13 09:50:18;;;;;;;5.28;2.00;;;;;;;19.93;100.00;101600.91;5087981;28;20028;-65
2023/09/13 09:52:51;;;;;;;3.55;2.10;;;;;;;20.12;100.00;101610.28;5092391;28;20040;-64
2023/09/13 09:55:21;;;;;;;5.35;2.13;;;;;;;20.51;100.00;101612.03;5091924;28;20036;-67
2023/09/13 09:57:48;;;;;;;6.38;2.10;;;;;;;20.68;100.00;101608.97;5091273;28;20039;-66
2023/09/13 10:00:14;;;;;;;4.35;2.20;;;;;;;20.69;100.00;101613.41;5092881;28;20161;-68
2023/09/13 10:02:40;;;;;;;4.88;2.10;;;;;;;20.92;100.00;101606.56;5094289;28;20084;-69
2023/09/13 10:05:05;;;;;;;4.68;1.90;;;;;;;21.33;100.00;101609.91;5096055;28;20024;-70
2023/09/13 10:07:40;;;;;;;5.70;2.10;;;;;;;22.46;100.00;101604.69;5096303;28;20067;-70
2023/09/13 10:10:09;;;;;;;6.20;2.38;;;;;;;23.74;100.00;101615.44;5096317;28;20028;-70
2023/09/13 10:12:43;;;;;;;6.13;2.10;;;;;;;23.78;100.00;101623.34;5092198;28;20391;-70
2023/09/13 10:15:09;;;;;;;6.20;2.10;;;;;;;24.34;100.00;101627.44;5095707;28;20024;-70
2023/09/13 10:17:36;;;;;;;6.28;2.30;;;;;;;23.74;100.00;101627.09;5094767;28;20028;-70
2023/09/13 10:20:03;;;;;;;8.45;2.90;;;;;;;24.12;100.00;101626.56;5095802;28;20141;-70
2023/09/13 10:22:30;;;;;;;5.85;2.17;;;;;;;24.91;100.00;101631.44;5095720;28;20057;-70
2023/09/13 10:25:00;;;;;;;6.47;2.38;;;;;;;26.58;100.00;101635.41;5095959;28;20479;-69
2023/09/13 10:27:27;;;;;;;5.35;2.00;;;;;;;28.18;100.00;101631.41;5095955;28;20397;-70
2023/09/13 10:30:00;;;;;;;5.05;1.90;;;;;;;28.89;92.51;101639.97;5095531;28;20028;-64
2023/09/13 10:32:34;;;;;;;6.20;2.03;;;;;;;29.05;87.98;101643.50;5095650;28;20055;-63
2023/09/13 10:35:01;;;;;;;4.50;2.10;;;;;;;29.81;78.86;101664.19;5095789;28;20127;-67
2023/09/13 10:37:52;;;;;;;3.83;2.00;;;;;;;29.11;81.90;101664.00;5095625;28;20024;-67
2023/09/13 10:40:39;;;;;;;4.85;1.90;;;;;;;27.73;100.00;101663.75;5086292;28;20035;-65
2023/09/13 10:43:05;;;;;;;2.95;1.83;;;;;;;26.01;100.00;101657.13;5095464;28;20064;-68
2023/09/13 10:45:31;;;;;;;5.95;2.00;;;;;;;24.65;100.00;101655.03;5095216;28;20035;-67
2023/09/13 10:47:59;;;;;;;4.95;2.00;;;;;;;24.08;100.00;101668.13;5095588;28;20028;-65
2023/09/13 10:50:25;;;;;;;5.05;1.92;;;;;;;25.72;100.00;101676.50;5095360;28;20035;-64
2023/09/13 10:52:50;;;;;;;4.50;1.83;;;;;;;25.98;100.00;101681.63;5095198;28;20475;-64
2023/09/13 10:55:16;;;;;;;6.82;2.30;;;;;;;25.01;100.00;101676.91;5088314;28;20040;-62
2023/09/13 10:57:43;;;;;;;10.00;2.15;;;;;;;24.26;100.00;101680.91;5094897;28;20067;-65
2023/09/13 11:00:11;;;;;;;7.60;2.33;;;;;;;23.53;100.00;101676.47;5094743;28;20027;-61
2023/09/13 11:02:38;;;;;;;7.35;2.40;;;;;;;23.10;100.00;101678.88;5095207;28;20071;-62
2023/09/13 11:05:04;;;;;;;9.27;2.55;;;;;;;23.06;100.00;101674.53;5090834;28;20410;-62